Time;durP1;ratioP1;P1;durP2;ratioP2;P2;SDS_P1;SDS_P2;PMS_P1;PMS_P2;Temp;Humidity;BMP_temperature;BMP_pressure;BME280_temperature;BME280_humidity;BME280_pressure;Samples;Min_cycle;Max_cycle;Signal;HPM_P1;HPM_P2
2023/09/26 00:01:15;;;;;;;10.53;9.73;;;11.00;99.90;;;;;;4972985;28;20223;-79
2023/09/26 00:03:42;;;;;;;10.17;9.37;;;11.10;99.90;;;;;;4972804;28;20253;-78
2023/09/26 00:06:19;;;;;;;10.47;9.67;;;11.10;99.90;;;;;;4972541;28;20199;-79
2023/09/26 00:08:46;;;;;;;10.40;9.40;;;11.10;99.90;;;;;;4973686;28;20226;-78
2023/09/26 00:11:15;;;;;;;10.77;9.87;;;11.00;99.90;;;;;;4972770;28;20257;-78
2023/09/26 00:13:43;;;;;;;10.77;9.77;;;11.00;99.90;;;;;;4972558;28;20226;-78
2023/09/26 00:16:10;;;;;;;11.13;10.20;;;11.00;99.90;;;;;;4972754;28;20698;-79
2023/09/26 00:18:40;;;;;;;10.93;10.13;;;10.90;99.90;;;;;;4974196;28;20207;-78
2023/09/26 00:21:07;;;;;;;10.13;9.33;;;10.80;99.90;;;;;;4972492;28;20242;-78
2023/09/26 00:23:33;;;;;;;10.30;9.60;;;10.70;99.90;;;;;;4972784;28;20214;-78
2023/09/26 00:26:00;;;;;;;10.83;10.03;;;10.70;99.90;;;;;;4973173;28;20643;-79
2023/09/26 00:28:28;;;;;;;11.03;10.13;;;10.70;99.90;;;;;;4972810;28;20864;-79
2023/09/26 00:30:56;;;;;;;11.13;10.33;;;10.60;99.90;;;;;;4972371;28;20234;-79
2023/09/26 00:33:23;;;;;;;11.03;10.13;;;10.60;99.90;;;;;;4979575;28;20199;-79
2023/09/26 00:35:50;;;;;;;10.73;9.93;;;10.60;99.90;;;;;;4972091;28;20270;-79
2023/09/26 00:38:17;;;;;;;10.53;9.73;;;10.60;99.90;;;;;;4972368;28;20204;-79
2023/09/26 00:40:44;;;;;;;11.17;10.07;;;10.60;99.90;;;;;;4972821;28;20227;-78
2023/09/26 00:43:20;;;;;;;10.97;10.07;;;10.60;99.90;;;;;;4978972;28;20292;-79
2023/09/26 00:45:53;;;;;;;10.40;9.60;;;10.50;99.90;;;;;;4986097;28;20205;-78
2023/09/26 00:48:20;;;;;;;10.33;9.53;;;10.50;99.90;;;;;;4979646;28;20222;-78
2023/09/26 00:50:47;;;;;;;11.63;10.70;;;10.40;99.90;;;;;;4977778;28;20227;-78
2023/09/26 00:53:14;;;;;;;11.00;10.10;;;10.40;99.90;;;;;;4972392;28;20203;-78
2023/09/26 00:55:41;;;;;;;10.93;10.03;;;10.40;99.90;;;;;;4971380;28;20555;-77
2023/09/26 00:58:08;;;;;;;11.03;10.23;;;10.40;99.90;;;;;;4980347;28;20194;-79
2023/09/26 01:00:36;;;;;;;12.03;10.93;;;10.40;99.90;;;;;;4973626;28;20225;-79
2023/09/26 01:03:05;;;;;;;11.53;10.60;;;10.40;99.90;;;;;;4972508;28;20236;-79
2023/09/26 01:05:32;;;;;;;10.90;10.00;;;10.40;99.90;;;;;;4972012;28;20213;-79
2023/09/26 01:07:59;;;;;;;11.10;10.20;;;10.40;99.90;;;;;;4972283;28;20224;-78
2023/09/26 01:10:26;;;;;;;10.83;10.03;;;10.40;99.90;;;;;;4971985;28;20215;-78
2023/09/26 01:12:53;;;;;;;10.83;9.93;;;10.40;99.90;;;;;;4972070;28;20202;-78
2023/09/26 01:15:31;;;;;;;11.27;10.43;;;10.40;99.90;;;;;;4973430;28;20200;-78
2023/09/26 01:17:58;;;;;;;10.87;9.93;;;10.40;99.90;;;;;;4978613;28;20253;-78
2023/09/26 01:20:28;;;;;;;10.97;9.97;;;10.40;99.90;;;;;;4971700;28;20210;-78
2023/09/26 01:22:57;;;;;;;11.00;10.10;;;10.40;99.90;;;;;;4972091;28;20630;-78
2023/09/26 01:25:25;;;;;;;11.10;10.30;;;10.40;99.90;;;;;;4971175;28;20669;-79
2023/09/26 01:27:52;;;;;;;11.87;10.80;;;10.40;99.90;;;;;;4980204;28;20770;-79
2023/09/26 01:30:19;;;;;;;11.57;10.57;;;10.40;99.90;;;;;;4972466;28;20228;-79
2023/09/26 01:32:47;;;;;;;11.57;10.63;;;10.40;99.90;;;;;;4973120;28;20198;-79
2023/09/26 01:35:13;;;;;;;10.93;10.13;;;10.40;99.90;;;;;;4973687;28;20641;-79
2023/09/26 01:37:39;;;;;;;11.30;10.40;;;10.40;99.90;;;;;;4972023;28;20190;-78
2023/09/26 01:40:11;;;;;;;11.70;10.50;;;10.40;99.90;;;;;;4971596;28;20232;-78
2023/09/26 01:42:39;;;;;;;11.50;10.60;;;10.30;99.90;;;;;;4979849;28;20201;-78
2023/09/26 01:45:08;;;;;;;10.60;9.80;;;10.30;99.90;;;;;;4974066;28;20199;-78
2023/09/26 01:47:42;;;;;;;12.00;11.00;;;10.30;99.90;;;;;;4982278;28;20210;-79
2023/09/26 01:50:09;;;;;;;10.83;10.03;;;10.20;99.90;;;;;;4967362;28;20725;-79
2023/09/26 01:52:36;;;;;;;10.67;9.87;;;10.20;99.90;;;;;;4976082;28;20630;-78
2023/09/26 01:55:04;;;;;;;10.90;10.10;;;10.20;99.90;;;;;;4975879;28;20209;-79
2023/09/26 01:57:32;;;;;;;11.10;10.17;;;10.20;99.90;;;;;;4976486;28;20658;-79
2023/09/26 02:00:08;;;;;;;11.27;10.47;;;10.20;99.90;;;;;;4974900;28;20700;-79
2023/09/26 02:02:40;;;;;;;10.73;9.93;;;10.20;99.90;;;;;;4972407;28;20233;-78
2023/09/26 02:05:08;;;;;;;11.80;10.80;;;10.20;99.90;;;;;;4975076;28;20206;-78
2023/09/26 02:07:35;;;;;;;11.13;10.23;;;10.20;99.90;;;;;;4976465;28;20190;-78
2023/09/26 02:10:03;;;;;;;11.57;10.63;;;10.10;99.90;;;;;;4974638;28;20218;-79
2023/09/26 02:12:30;;;;;;;11.93;10.87;;;10.10;99.90;;;;;;4981186;28;20197;-78
2023/09/26 02:14:57;;;;;;;12.60;11.60;;;10.10;99.90;;;;;;4976596;28;20563;-79
2023/09/26 02:17:25;;;;;;;9.53;8.73;;;10.10;99.90;;;;;;4977168;28;20210;-78
2023/09/26 02:19:52;;;;;;;9.23;8.37;;;10.10;99.90;;;;;;4983799;28;20221;-78
2023/09/26 02:22:19;;;;;;;12.60;11.63;;;10.00;99.90;;;;;;4974468;28;20199;-79
2023/09/26 02:24:52;;;;;;;12.07;11.20;;;10.00;99.90;;;;;;4975978;28;20618;-79
2023/09/26 02:27:20;;;;;;;11.20;10.40;;;10.00;99.90;;;;;;4967955;28;20290;-79
2023/09/26 02:29:47;;;;;;;9.03;8.10;;;9.90;99.90;;;;;;4983674;28;20217;-78
2023/09/26 02:32:14;;;;;;;8.80;8.00;;;9.90;99.90;;;;;;4970824;28;20259;-78
2023/09/26 02:34:42;;;;;;;7.20;6.40;;;9.90;99.90;;;;;;4979420;28;20249;-79
2023/09/26 02:37:10;;;;;;;11.73;10.70;;;9.90;99.90;;;;;;4975826;28;20202;-79
2023/09/26 02:39:37;;;;;;;6.50;5.70;;;9.90;99.90;;;;;;4974207;28;20222;-79
2023/09/26 02:42:04;;;;;;;11.57;10.70;;;9.80;99.90;;;;;;4974309;28;20194;-78
2023/09/26 02:44:31;;;;;;;9.07;7.90;;;9.80;99.90;;;;;;4973891;28;20202;-78
2023/09/26 02:46:58;;;;;;;10.90;9.93;;;9.70;99.90;;;;;;4975575;28;20296;-79
2023/09/26 02:49:25;;;;;;;8.53;7.63;;;9.70;99.90;;;;;;4980372;28;20727;-78
2023/09/26 02:51:53;;;;;;;12.70;11.70;;;9.80;99.90;;;;;;4974018;28;20202;-77
2023/09/26 02:54:21;;;;;;;7.90;7.20;;;9.70;99.90;;;;;;4974913;28;20317;-78
2023/09/26 02:56:47;;;;;;;9.30;8.50;;;9.70;99.90;;;;;;4975622;28;20252;-78
2023/09/26 02:59:14;;;;;;;5.63;5.03;;;9.60;99.90;;;;;;4981387;28;20199;-78
2023/09/26 03:01:41;;;;;;;5.90;5.23;;;9.60;99.90;;;;;;4972456;28;20201;-78
2023/09/26 03:04:08;;;;;;;10.17;8.80;;;9.60;99.90;;;;;;4975571;28;20587;-79
2023/09/26 03:06:35;;;;;;;6.77;6.17;;;9.60;99.90;;;;;;4975799;28;20252;-78
2023/09/26 03:09:03;;;;;;;10.53;9.63;;;9.60;99.90;;;;;;4972332;28;20222;-78
2023/09/26 03:11:30;;;;;;;11.53;10.73;;;9.60;99.90;;;;;;4974500;28;20202;-78
2023/09/26 03:13:57;;;;;;;6.77;6.17;;;9.50;99.90;;;;;;4973362;28;20265;-78
2023/09/26 03:16:24;;;;;;;7.93;7.13;;;9.50;99.90;;;;;;4973365;28;20225;-78
2023/09/26 03:18:54;;;;;;;9.07;8.33;;;9.50;99.90;;;;;;4974805;28;20190;-81
2023/09/26 03:21:21;;;;;;;9.00;8.23;;;9.40;99.90;;;;;;4972636;28;20732;-78
2023/09/26 03:23:48;;;;;;;6.80;6.03;;;9.50;99.90;;;;;;4969328;28;20205;-78
2023/09/26 03:26:16;;;;;;;8.03;7.33;;;9.50;99.90;;;;;;4971908;28;20198;-78
2023/09/26 03:28:43;;;;;;;7.40;6.70;;;9.50;99.90;;;;;;4973771;28;20218;-78
2023/09/26 03:31:10;;;;;;;7.00;6.40;;;9.50;99.90;;;;;;4973810;28;20218;-78
2023/09/26 03:33:38;;;;;;;7.03;6.33;;;9.50;99.90;;;;;;4981827;28;20210;-81
2023/09/26 03:36:05;;;;;;;6.27;5.77;;;9.50;99.90;;;;;;4983848;28;20263;-77
2023/09/26 03:38:33;;;;;;;6.57;6.00;;;9.40;99.90;;;;;;4973598;28;20204;-76
2023/09/26 03:41:00;;;;;;;8.50;7.80;;;9.40;99.90;;;;;;4972318;28;20217;-76
2023/09/26 03:43:29;;;;;;;7.87;7.17;;;9.40;99.90;;;;;;4973447;28;20257;-75
2023/09/26 03:46:01;;;;;;;7.30;6.60;;;9.40;99.90;;;;;;4971676;28;20591;-75
2023/09/26 03:48:28;;;;;;;11.10;10.20;;;9.30;99.90;;;;;;4979645;28;20831;-75
2023/09/26 03:50:55;;;;;;;9.77;9.07;;;9.30;99.90;;;;;;4971356;28;20225;-75
2023/09/26 03:53:22;;;;;;;11.43;10.50;;;9.20;99.90;;;;;;4971510;28;20206;-75
2023/09/26 03:55:54;;;;;;;11.60;10.70;;;9.20;99.90;;;;;;4971438;28;20260;-76
2023/09/26 03:58:21;;;;;;;7.27;6.30;;;9.10;99.90;;;;;;4972901;28;20204;-76
2023/09/26 04:00:49;;;;;;;7.43;6.50;;;9.00;99.90;;;;;;4965825;28;20260;-76
2023/09/26 04:03:16;;;;;;;11.20;10.40;;;9.00;99.90;;;;;;4973623;28;20197;-76
2023/09/26 04:05:46;;;;;;;12.23;11.43;;;8.90;99.90;;;;;;4972243;28;20190;-77
2023/09/26 04:08:14;;;;;;;7.40;6.73;;;8.90;99.90;;;;;;4972544;28;20197;-76
2023/09/26 04:10:40;;;;;;;9.83;8.93;;;8.90;99.90;;;;;;4971416;28;20218;-76
2023/09/26 04:13:07;;;;;;;8.80;8.00;;;8.80;99.90;;;;;;4972491;28;20210;-75
2023/09/26 04:15:38;;;;;;;6.23;5.57;;;8.80;99.90;;;;;;4966844;28;20245;-76
2023/09/26 04:18:06;;;;;;;10.47;9.67;;;8.80;99.90;;;;;;4980518;28;20297;-76
2023/09/26 04:20:36;;;;;;;9.50;8.70;;;8.80;99.90;;;;;;4971454;28;20236;-76
2023/09/26 04:23:03;;;;;;;8.03;7.30;;;8.80;99.90;;;;;;4972736;28;20209;-76
2023/09/26 04:25:31;;;;;;;9.73;8.93;;;8.80;99.90;;;;;;4971284;28;20197;-76
2023/09/26 04:27:58;;;;;;;10.70;9.90;;;8.80;99.90;;;;;;4971549;28;20206;-76
2023/09/26 04:30:25;;;;;;;11.67;10.87;;;8.80;99.90;;;;;;4963666;28;20308;-76
2023/09/26 04:32:52;;;;;;;12.33;11.33;;;8.80;99.90;;;;;;4971611;28;20212;-76
2023/09/26 04:35:20;;;;;;;12.03;11.20;;;8.80;99.90;;;;;;4971263;28;20214;-76
2023/09/26 04:37:47;;;;;;;11.83;11.00;;;8.80;99.90;;;;;;4975145;28;20202;-75
2023/09/26 04:40:14;;;;;;;12.40;11.50;;;8.70;99.90;;;;;;4974625;28;20229;-75
2023/09/26 04:42:43;;;;;;;12.20;11.30;;;8.70;99.90;;;;;;4979719;28;20228;-76
2023/09/26 04:45:10;;;;;;;10.63;9.73;;;8.70;99.90;;;;;;4975416;28;20289;-76
2023/09/26 04:47:37;;;;;;;10.77;10.03;;;8.70;99.90;;;;;;4982065;28;20660;-76
2023/09/26 04:50:05;;;;;;;10.47;9.63;;;8.70;99.90;;;;;;4980588;28;20640;-76
2023/09/26 04:52:34;;;;;;;11.27;10.20;;;8.70;99.90;;;;;;4971680;28;20301;-76
2023/09/26 04:55:00;;;;;;;11.93;10.93;;;8.70;99.90;;;;;;4972250;28;20272;-77
2023/09/26 04:57:27;;;;;;;11.57;10.77;;;8.60;99.90;;;;;;4972967;28;20580;-77
2023/09/26 04:59:55;;;;;;;12.73;11.87;;;8.60;99.90;;;;;;4972901;28;20660;-76
2023/09/26 05:02:21;;;;;;;10.20;9.40;;;8.60;99.90;;;;;;4974214;28;21148;-76
2023/09/26 05:04:48;;;;;;;12.33;11.43;;;8.60;99.90;;;;;;4971500;28;20210;-76
2023/09/26 05:07:16;;;;;;;11.80;10.90;;;8.60;99.90;;;;;;4971347;28;20244;-76
2023/09/26 05:09:44;;;;;;;12.87;11.67;;;8.60;99.90;;;;;;4972326;28;20848;-76
2023/09/26 05:12:11;;;;;;;13.10;12.20;;;8.70;99.90;;;;;;4971106;28;20908;-77
2023/09/26 05:14:37;;;;;;;12.40;11.60;;;8.70;99.90;;;;;;4972550;28;20201;-76
2023/09/26 05:17:04;;;;;;;12.30;11.47;;;8.70;99.90;;;;;;4970852;28;20202;-76
2023/09/26 05:19:31;;;;;;;12.70;11.70;;;8.70;99.90;;;;;;4982138;28;20312;-76
2023/09/26 05:21:58;;;;;;;13.27;12.17;;;8.80;99.90;;;;;;4976251;28;20213;-76
2023/09/26 05:24:25;;;;;;;12.93;11.97;;;8.70;99.90;;;;;;4974402;28;20260;-76
2023/09/26 05:26:53;;;;;;;12.43;11.43;;;8.80;99.90;;;;;;4974983;28;20206;-76
2023/09/26 05:29:20;;;;;;;12.20;11.30;;;8.70;99.90;;;;;;4975269;28;20955;-76
2023/09/26 05:31:47;;;;;;;11.87;11.00;;;8.80;99.90;;;;;;4976397;28;20205;-76
2023/09/26 05:34:13;;;;;;;12.50;11.53;;;8.70;99.90;;;;;;4975826;28;20277;-76
2023/09/26 05:36:40;;;;;;;12.30;11.40;;;8.80;99.90;;;;;;4975968;28;20589;-76
2023/09/26 05:39:07;;;;;;;9.67;8.87;;;8.80;99.90;;;;;;4975830;28;20198;-76
2023/09/26 05:41:34;;;;;;;8.30;7.60;;;8.80;99.90;;;;;;4976040;28;20197;-76
2023/09/26 05:44:02;;;;;;;8.87;8.20;;;8.90;99.90;;;;;;4975616;28;20206;-76
2023/09/26 05:46:28;;;;;;;10.60;9.80;;;8.90;99.90;;;;;;4975528;28;20198;-76
2023/09/26 05:48:55;;;;;;;7.87;7.17;;;8.80;99.90;;;;;;4975703;28;20657;-76
2023/09/26 05:51:22;;;;;;;10.13;9.33;;;8.90;99.90;;;;;;4975653;28;20232;-76
2023/09/26 05:53:49;;;;;;;8.83;8.03;;;8.90;99.90;;;;;;4974286;28;20229;-77
2023/09/26 05:56:16;;;;;;;7.10;6.40;;;9.00;99.90;;;;;;4975185;28;20685;-76
2023/09/26 05:58:42;;;;;;;8.30;7.60;;;9.00;99.90;;;;;;4974592;28;20201;-76
2023/09/26 06:01:11;;;;;;;9.37;8.57;;;9.10;99.90;;;;;;4975612;28;20226;-76
2023/09/26 06:03:38;;;;;;;7.93;7.23;;;9.20;99.90;;;;;;4978186;28;20197;-76
2023/09/26 06:06:05;;;;;;;5.67;5.10;;;9.30;99.90;;;;;;4975361;28;20302;-76
2023/09/26 06:08:33;;;;;;;6.23;5.57;;;9.40;99.90;;;;;;4974228;28;20193;-77
2023/09/26 06:11:00;;;;;;;7.33;6.63;;;9.40;99.90;;;;;;4975610;28;20225;-76
2023/09/26 06:13:27;;;;;;;8.23;7.43;;;9.60;99.90;;;;;;4982092;28;20594;-76
2023/09/26 06:15:54;;;;;;;5.73;5.07;;;9.70;99.90;;;;;;4981560;28;20206;-77
2023/09/26 06:18:22;;;;;;;11.07;10.27;;;9.80;99.90;;;;;;4982285;28;20209;-77
2023/09/26 06:20:49;;;;;;;6.33;5.80;;;9.90;99.90;;;;;;4976888;28;20221;-78
2023/09/26 06:23:16;;;;;;;8.23;7.53;;;10.00;99.90;;;;;;4980019;28;20212;-78
2023/09/26 06:25:43;;;;;;;5.33;4.80;;;10.10;99.90;;;;;;4974500;28;20193;-78
2023/09/26 06:28:10;;;;;;;9.97;9.17;;;10.20;99.90;;;;;;4975715;28;20194;-77
2023/09/26 06:30:36;;;;;;;11.03;10.23;;;10.30;99.90;;;;;;4975009;28;20261;-77
2023/09/26 06:33:04;;;;;;;6.60;5.90;;;10.30;99.90;;;;;;4976403;28;20208;-78
2023/09/26 06:35:33;;;;;;;9.60;8.80;;;10.40;99.90;;;;;;4975533;28;20206;-77
2023/09/26 06:38:00;;;;;;;11.77;10.87;;;10.40;99.90;;;;;;4976406;28;20221;-79
2023/09/26 06:40:27;;;;;;;10.10;9.30;;;10.50;99.90;;;;;;4982672;28;20265;-78
2023/09/26 06:42:56;;;;;;;6.80;6.20;;;10.60;99.90;;;;;;4978183;28;20204;-78
2023/09/26 06:45:23;;;;;;;5.97;5.30;;;10.70;99.90;;;;;;4977407;28;20211;-76
2023/09/26 06:47:50;;;;;;;10.07;9.33;;;10.80;99.90;;;;;;4979670;28;20202;-76
2023/09/26 06:50:17;;;;;;;8.70;8.00;;;10.90;99.90;;;;;;4978533;28;20229;-76
2023/09/26 06:52:45;;;;;;;12.00;11.10;;;11.00;99.90;;;;;;5031905;23;20238;-78
2023/09/26 06:55:12;;;;;;;7.70;6.90;;;11.10;99.90;;;;;;5013469;28;20203;-78
2023/09/26 06:57:39;;;;;;;7.77;7.07;;;11.20;99.90;;;;;;5014084;28;20201;-78
2023/09/26 07:00:12;;;;;;;8.40;7.60;;;11.30;99.90;;;;;;4997769;28;20199;-78
2023/09/26 07:02:39;;;;;;;5.73;5.20;;;11.50;99.90;;;;;;5025954;28;20222;-78
2023/09/26 07:05:07;;;;;;;7.57;6.30;;;11.80;99.90;;;;;;5012864;28;20225;-78
2023/09/26 07:07:34;;;;;;;9.47;8.73;;;12.10;99.90;;;;;;5005541;28;20197;-79
2023/09/26 07:10:03;;;;;;;10.30;9.40;;;12.50;99.90;;;;;;5013781;28;20216;-78
2023/09/26 07:12:30;;;;;;;7.50;6.80;;;12.90;99.90;;;;;;5028553;28;20224;-79
2023/09/26 07:14:57;;;;;;;7.07;5.23;;;13.30;99.90;;;;;;5013629;28;20239;-79
2023/09/26 07:17:24;;;;;;;9.57;8.77;;;13.70;99.90;;;;;;5010812;28;20228;-79
2023/09/26 07:19:51;;;;;;;6.40;5.70;;;14.10;99.90;;;;;;5023486;28;20284;-81
2023/09/26 07:22:18;;;;;;;7.70;5.53;;;14.60;99.90;;;;;;5001830;28;20316;-78
2023/09/26 07:24:49;;;;;;;7.37;5.67;;;14.90;99.90;;;;;;4999885;28;20193;-81
2023/09/26 07:27:17;;;;;;;9.20;8.40;;;15.50;99.90;;;;;;5008690;28;20278;-83
2023/09/26 07:29:46;;;;;;;5.83;5.07;;;15.90;99.90;;;;;;5027640;28;20216;-83
2023/09/26 07:32:12;;;;;;;10.83;9.93;;;16.20;99.90;;;;;;5012745;28;20734;-84
2023/09/26 07:34:41;;;;;;;5.57;4.97;;;16.50;99.90;;;;;;5027228;28;20262;-83
2023/09/26 07:37:07;;;;;;;5.83;4.60;;;16.80;99.90;;;;;;5027764;28;20204;-83
2023/09/26 07:39:34;;;;;;;5.37;4.87;;;17.20;99.90;;;;;;5011670;28;20196;-83
2023/09/26 07:42:01;;;;;;;5.60;4.90;;;17.40;99.90;;;;;;5033558;28;20243;-83
2023/09/26 07:44:29;;;;;;;6.80;4.60;;;17.60;99.90;;;;;;5013642;28;20213;-78
2023/09/26 07:46:56;;;;;;;6.63;5.00;;;17.90;99.90;;;;;;5015075;28;20202;-79
2023/09/26 07:49:23;;;;;;;11.10;10.20;;;18.10;99.90;;;;;;5013940;28;20696;-79
2023/09/26 07:51:50;;;;;;;7.47;6.73;;;18.30;99.90;;;;;;5012628;28;20716;-78
2023/09/26 07:54:17;;;;;;;10.63;8.43;;;18.70;99.90;;;;;;5029291;28;20210;-79
2023/09/26 07:56:43;;;;;;;6.77;5.60;;;18.90;99.90;;;;;;5014137;28;20204;-79
2023/09/26 07:59:10;;;;;;;7.50;6.80;;;19.00;99.90;;;;;;5029601;28;20238;-80
2023/09/26 08:01:38;;;;;;;10.13;9.13;;;19.30;99.90;;;;;;5014061;28;20222;-80
2023/09/26 08:04:07;;;;;;;6.67;4.80;;;19.40;99.90;;;;;;5013951;28;20192;-79
2023/09/26 08:06:34;;;;;;;5.70;4.80;;;19.70;99.90;;;;;;5028962;28;20733;-79
2023/09/26 08:09:00;;;;;;;6.83;5.03;;;19.70;99.90;;;;;;5015284;28;20204;-81
2023/09/26 08:11:28;;;;;;;6.67;5.00;;;19.70;99.90;;;;;;5015687;28;20278;-82
2023/09/26 08:13:56;;;;;;;9.30;5.33;;;19.80;99.90;;;;;;5030267;28;20236;-80
2023/09/26 08:16:23;;;;;;;8.03;5.03;;;19.80;99.90;;;;;;5030004;28;20208;-79
2023/09/26 08:18:52;;;;;;;8.27;5.87;;;19.70;99.90;;;;;;5015176;28;20254;-80
2023/09/26 08:21:19;;;;;;;6.40;5.80;;;19.80;99.90;;;;;;5007292;28;20216;-80
2023/09/26 08:23:45;;;;;;;8.10;4.80;;;20.00;99.90;;;;;;5014818;28;20196;-80
2023/09/26 08:26:12;;;;;;;5.37;4.53;;;20.40;99.90;;;;;;5014738;28;20204;-79
2023/09/26 08:28:39;;;;;;;7.47;4.80;;;20.40;99.90;;;;;;5014014;28;20250;-84
2023/09/26 08:31:09;;;;;;;5.87;4.90;;;20.60;99.90;;;;;;5012816;28;20591;-85
2023/09/26 08:33:36;;;;;;;9.30;7.27;;;20.70;99.90;;;;;;5027841;28;20200;-84
2023/09/26 08:36:14;;;;;;;6.13;4.90;;;20.70;99.90;;;;;;5028193;28;20205;-85
2023/09/26 08:38:41;;;;;;;6.93;5.83;;;20.80;99.90;;;;;;5012400;28;20227;-83
2023/09/26 08:41:10;;;;;;;6.93;4.50;;;20.90;99.90;;;;;;5008102;28;20213;-83
2023/09/26 08:43:37;;;;;;;6.03;4.97;;;20.90;99.90;;;;;;5030722;28;20205;-84
2023/09/26 08:46:04;;;;;;;7.33;4.73;;;21.00;99.90;;;;;;5009796;28;20200;-81
2023/09/26 08:48:31;;;;;;;5.70;4.60;;;21.20;99.90;;;;;;5004905;28;20201;-82
2023/09/26 08:50:58;;;;;;;6.87;4.57;;;21.30;99.90;;;;;;5006745;28;20228;-87
2023/09/26 08:53:26;;;;;;;6.13;4.40;;;21.30;99.90;;;;;;5030874;28;20806;-82
2023/09/26 08:55:54;;;;;;;4.67;4.17;;;21.40;99.90;;;;;;5033828;28;20200;-81
2023/09/26 08:58:21;;;;;;;8.00;4.90;;;21.70;99.90;;;;;;5031735;28;20193;-83
2023/09/26 09:00:49;;;;;;;5.43;4.93;;;21.70;99.90;;;;;;5007566;28;20267;-82
2023/09/26 09:03:16;;;;;;;7.37;6.13;;;21.80;99.90;;;;;;5017977;28;20193;-83
2023/09/26 09:05:43;;;;;;;5.07;4.07;;;22.10;99.90;;;;;;5016656;28;20752;-83
2023/09/26 09:08:16;;;;;;;7.07;4.63;;;22.30;99.90;;;;;;5032194;28;20200;-83
2023/09/26 09:10:51;;;;;;;7.03;6.03;;;22.30;99.90;;;;;;5029753;28;20217;-83
2023/09/26 09:13:29;;;;;;;8.70;8.00;;;22.40;99.90;;;;;;5012803;28;20745;-83
2023/09/26 09:16:20;;;;;;;8.43;7.80;;;22.60;99.90;;;;;;5009039;28;20208;-82
2023/09/26 09:18:50;;;;;;;5.73;5.23;;;22.70;99.90;;;;;;5006229;28;20576;-83
2023/09/26 09:21:21;;;;;;;8.53;7.90;;;22.80;99.90;;;;;;5031882;28;20230;-83
2023/09/26 09:23:48;;;;;;;10.23;9.33;;;23.00;99.90;;;;;;5030629;28;20295;-83
2023/09/26 09:26:17;;;;;;;9.60;8.80;;;22.90;99.90;;;;;;5031652;28;20707;-83
2023/09/26 09:28:44;;;;;;;9.93;9.10;;;22.80;99.90;;;;;;5032252;28;20201;-83
2023/09/26 09:31:14;;;;;;;9.40;8.53;;;22.60;99.90;;;;;;5017155;28;20231;-83
2023/09/26 09:33:45;;;;;;;9.63;8.80;;;22.50;99.90;;;;;;5031443;28;20205;-82
2023/09/26 09:36:12;;;;;;;11.90;10.70;;;22.30;99.90;;;;;;5029567;28;20228;-83
2023/09/26 09:38:39;;;;;;;5.80;4.97;;;22.10;99.90;;;;;;5011041;28;20295;-82
2023/09/26 09:41:06;;;;;;;5.60;4.37;;;21.80;99.90;;;;;;5014873;28;20224;-82
2023/09/26 09:43:35;;;;;;;8.03;7.27;;;22.00;99.90;;;;;;5013760;28;20255;-82
2023/09/26 09:46:06;;;;;;;5.10;4.60;;;22.20;99.90;;;;;;5007938;28;20659;-82
2023/09/26 09:48:41;;;;;;;7.10;4.97;;;22.20;99.90;;;;;;5029204;28;20262;-82
2023/09/26 09:51:10;;;;;;;9.37;8.47;;;22.10;99.90;;;;;;5029316;28;20323;-82
2023/09/26 09:53:38;;;;;;;8.70;8.00;;;22.30;99.90;;;;;;5029243;28;20591;-82
2023/09/26 09:56:07;;;;;;;8.50;7.80;;;22.30;99.90;;;;;;5009331;28;20732;-83
2023/09/26 09:58:40;;;;;;;7.87;7.20;;;22.30;99.90;;;;;;5017804;28;20754;-82
2023/09/26 10:01:08;;;;;;;8.37;7.70;;;22.50;99.90;;;;;;5030196;28;20271;-82
2023/09/26 10:03:36;;;;;;;7.83;7.23;;;22.50;99.90;;;;;;5029796;28;20200;-82
2023/09/26 10:06:08;;;;;;;6.77;6.27;;;22.50;99.90;;;;;;5028405;28;20288;-82
2023/09/26 10:08:36;;;;;;;7.10;6.60;;;22.30;99.90;;;;;;5028349;28;20259;-82
2023/09/26 10:11:04;;;;;;;7.77;7.10;;;22.20;99.90;;;;;;5028649;28;20278;-82
2023/09/26 10:13:31;;;;;;;7.83;7.13;;;22.10;99.90;;;;;;5028418;28;20255;-82
2023/09/26 10:16:15;;;;;;;8.60;7.80;;;22.10;99.90;;;;;;5005667;28;20201;-82
2023/09/26 10:18:43;;;;;;;8.40;7.63;;;21.90;99.90;;;;;;5029240;28;20673;-82
2023/09/26 10:21:24;;;;;;;8.23;7.43;;;21.80;99.90;;;;;;5008471;28;20244;-82
2023/09/26 10:24:22;;;;;;;8.10;7.40;;;21.60;99.90;;;;;;5028184;28;20216;-81
2023/09/26 10:26:50;;;;;;;7.43;6.93;;;21.40;99.90;;;;;;5012432;28;20578;-82
2023/09/26 10:29:23;;;;;;;7.40;6.80;;;21.50;99.90;;;;;;5013605;28;20271;-82
2023/09/26 10:31:54;;;;;;;6.87;6.37;;;21.60;99.90;;;;;;5028646;28;20224;-83
2023/09/26 10:34:24;;;;;;;8.50;7.80;;;21.70;99.90;;;;;;5028505;28;20225;-81
2023/09/26 10:36:51;;;;;;;7.60;7.00;;;21.50;99.90;;;;;;5012974;28;20275;-82
2023/09/26 10:39:17;;;;;;;7.67;7.00;;;21.40;99.90;;;;;;5027650;28;20584;-82
2023/09/26 10:41:45;;;;;;;7.03;6.53;;;21.40;99.90;;;;;;5013058;28;20220;-82
2023/09/26 10:44:11;;;;;;;2.77;2.57;;;21.40;99.90;;;;;;5028383;28;20211;-82
2023/09/26 10:46:38;;;;;;;4.03;3.03;;;21.50;99.90;;;;;;5012706;28;20200;-82
2023/09/26 10:49:06;;;;;;;3.57;2.90;;;21.70;99.90;;;;;;5028374;28;20666;-82
2023/09/26 10:51:34;;;;;;;2.70;2.50;;;21.70;99.90;;;;;;5028801;28;20233;-81
2023/09/26 10:54:01;;;;;;;3.30;2.93;;;21.70;99.90;;;;;;5000690;28;20694;-82
2023/09/26 10:56:28;;;;;;;3.00;2.63;;;21.70;99.90;;;;;;5009293;28;20192;-83
2023/09/26 10:58:55;;;;;;;3.00;2.80;;;21.80;99.90;;;;;;5011883;28;20259;-84
2023/09/26 11:01:37;;;;;;;3.30;3.00;;;21.80;99.90;;;;;;5028196;28;20255;-82
2023/09/26 11:04:06;;;;;;;3.93;3.30;;;21.80;99.90;;;;;;5004519;28;20204;-82
2023/09/26 11:06:33;;;;;;;2.60;2.40;;;21.50;99.90;;;;;;5012680;28;20200;-82
2023/09/26 11:09:00;;;;;;;6.97;6.40;;;21.60;99.90;;;;;;5010011;28;20549;-82
2023/09/26 11:11:27;;;;;;;7.80;7.20;;;21.60;99.90;;;;;;5027931;28;20621;-82
2023/09/26 11:13:55;;;;;;;7.20;6.70;;;21.50;99.90;;;;;;5006480;28;20209;-82
2023/09/26 11:16:22;;;;;;;4.77;4.40;;;21.50;99.90;;;;;;5013574;28;20204;-82
2023/09/26 11:18:54;;;;;;;4.97;4.53;;;21.50;99.90;;;;;;5000934;28;20614;-82
2023/09/26 11:21:22;;;;;;;6.77;6.33;;;21.50;99.90;;;;;;5027673;28;20216;-82
2023/09/26 11:23:49;;;;;;;6.80;6.40;;;21.50;99.90;;;;;;5010748;28;20413;-82
2023/09/26 11:26:17;;;;;;;6.93;6.43;;;21.50;99.90;;;;;;5027418;28;20675;-82
2023/09/26 11:28:44;;;;;;;5.33;4.83;;;21.50;99.90;;;;;;5012359;28;20196;-82
2023/09/26 11:31:13;;;;;;;3.50;3.03;;;21.50;99.90;;;;;;5027385;28;20228;-82
2023/09/26 11:33:40;;;;;;;3.23;2.93;;;21.40;99.90;;;;;;5027837;28;20192;-82
2023/09/26 11:36:09;;;;;;;3.90;2.77;;;21.50;99.90;;;;;;5005467;28;20648;-82
2023/09/26 11:38:46;;;;;;;2.77;2.57;;;21.50;99.90;;;;;;5023831;28;20200;-81
2023/09/26 11:41:13;;;;;;;3.17;2.70;;;21.60;99.90;;;;;;5027139;28;20584;-82
2023/09/26 11:43:41;;;;;;;2.90;2.60;;;21.60;99.90;;;;;;5015898;28;20192;-81
2023/09/26 11:46:09;;;;;;;3.10;2.80;;;21.70;99.90;;;;;;5023491;28;20609;-82
2023/09/26 11:48:36;;;;;;;2.70;2.50;;;21.70;99.90;;;;;;5015414;28;20630;-82
2023/09/26 11:51:03;;;;;;;2.47;2.27;;;21.80;99.90;;;;;;5016007;28;20738;-82
2023/09/26 11:53:30;;;;;;;2.53;2.33;;;21.80;99.90;;;;;;5014942;28;20196;-82
2023/09/26 11:55:58;;;;;;;3.13;2.50;;;21.80;99.90;;;;;;5011841;28;20200;-82
2023/09/26 11:58:25;;;;;;;3.33;3.03;;;21.80;99.90;;;;;;5023484;28;20262;-82
2023/09/26 12:00:53;;;;;;;5.33;3.10;;;21.80;99.90;;;;;;5001519;28;20197;-82
2023/09/26 12:03:19;;;;;;;3.57;3.20;;;21.80;99.90;;;;;;5005435;28;20541;-81
2023/09/26 12:05:46;;;;;;;3.63;2.90;;;21.80;99.90;;;;;;5026009;28;20192;-81
2023/09/26 12:08:13;;;;;;;3.23;2.93;;;21.80;99.90;;;;;;5026795;28;20204;-82
2023/09/26 12:10:40;;;;;;;3.63;3.00;;;21.80;99.90;;;;;;5011672;28;20251;-82
2023/09/26 12:13:08;;;;;;;3.33;3.00;;;21.70;99.90;;;;;;5018663;28;20216;-82
2023/09/26 12:15:35;;;;;;;3.87;3.10;;;21.70;99.90;;;;;;5026694;28;20228;-82
2023/09/26 12:18:01;;;;;;;3.17;2.80;;;21.70;99.90;;;;;;5026481;28;20202;-81
2023/09/26 12:20:29;;;;;;;3.10;2.83;;;21.70;99.90;;;;;;5011178;28;20617;-82
2023/09/26 12:22:58;;;;;;;4.20;2.90;;;21.70;99.90;;;;;;5026220;28;20325;-82
2023/09/26 12:25:27;;;;;;;3.10;2.50;;;21.70;99.90;;;;;;5026952;28;20511;-82
2023/09/26 12:27:55;;;;;;;2.80;2.60;;;21.70;99.90;;;;;;5010917;28;20225;-81
2023/09/26 12:30:23;;;;;;;3.00;2.70;;;21.70;99.90;;;;;;5011399;28;20204;-82
2023/09/26 12:32:50;;;;;;;3.57;3.07;;;21.70;99.90;;;;;;5026603;28;20228;-82
2023/09/26 12:35:17;;;;;;;3.67;2.63;;;21.70;99.90;;;;;;5003129;28;20295;-82
2023/09/26 12:37:45;;;;;;;2.67;2.43;;;21.80;99.90;;;;;;5010868;28;20215;-81
2023/09/26 12:40:13;;;;;;;2.50;2.30;;;21.80;99.90;;;;;;5010511;28;20188;-82
2023/09/26 12:42:40;;;;;;;6.10;5.70;;;21.80;99.90;;;;;;5024037;28;20691;-82
2023/09/26 12:45:08;;;;;;;6.40;6.00;;;21.80;99.90;;;;;;5010308;28;20687;-82
2023/09/26 12:47:37;;;;;;;6.87;6.30;;;21.80;99.90;;;;;;5011456;28;20204;-81